AUA339 EDDS-LOWW
Flight info
| Callsign | AUA339 |
|---|---|
| Flight time | 1h 0m |
| Altitude | 31000 |
| Route | ABTAL4B/25 ABTAL L173 RIXED Y161 RIDAR Z98 MIQ L605 BIBAG Q104 AKIMA DCT MASUR MASUR3W |
| Aircraft | A339/H-SADE1E2E3GHIJ3J5M1P2RWXY/LB2D1 |
Departure
| Time | 2026-05-06 18:01 |
|---|---|
| Airport | Stuttgart Airport (EDDS) |
Arrival
| Time | 2026-05-06 19:01 |
|---|---|
| Airport | Vienna International Airport (LOWW) |
| Time | Latitude | Longitude | Altitude | Speed | Heading |
|---|---|---|---|---|---|
| 2026-05-06 17:35 | 48.69077 | 9.20847 | 1291 ft | 0 kts | 345° |
| 2026-05-06 17:48 | 48.69060 | 9.20854 | 1291 ft | 3 kts | 345° |
| 2026-05-06 17:48 | 48.69048 | 9.20860 | 1291 ft | 1 kts | 357° |
| 2026-05-06 17:48 | 48.69040 | 9.20861 | 1291 ft | 1 kts | 3° |
| 2026-05-06 17:49 | 48.69032 | 9.20861 | 1291 ft | 1 kts | 8° |
| 2026-05-06 17:49 | 48.69025 | 9.20860 | 1291 ft | 1 kts | 8° |
| 2026-05-06 17:49 | 48.69017 | 9.20858 | 1291 ft | 1 kts | 14° |
| 2026-05-06 17:49 | 48.69010 | 9.20856 | 1291 ft | 1 kts | 21° |
| 2026-05-06 17:50 | 48.69002 | 9.20853 | 1291 ft | 1 kts | 31° |
| 2026-05-06 17:50 | 48.68994 | 9.20849 | 1291 ft | 1 kts | 57° |
| 2026-05-06 17:50 | 48.68990 | 9.20844 | 1291 ft | 0 kts | 75° |
| 2026-05-06 17:54 | 48.68992 | 9.20852 | 1291 ft | 2 kts | 75° |
| 2026-05-06 17:55 | 48.68997 | 9.20883 | 1291 ft | 4 kts | 74° |
| 2026-05-06 17:55 | 48.69008 | 9.20937 | 1291 ft | 7 kts | 73° |
| 2026-05-06 17:55 | 48.69027 | 9.21037 | 1291 ft | 16 kts | 73° |
| 2026-05-06 17:55 | 48.69068 | 9.21244 | 1291 ft | 24 kts | 73° |
| 2026-05-06 17:56 | 48.69122 | 9.21524 | 1291 ft | 31 kts | 74° |
| 2026-05-06 17:56 | 48.69184 | 9.21858 | 1291 ft | 34 kts | 74° |
| 2026-05-06 17:56 | 48.69247 | 9.22201 | 1291 ft | 34 kts | 75° |
| 2026-05-06 17:56 | 48.69311 | 9.22544 | 1291 ft | 34 kts | 72° |
| 2026-05-06 17:57 | 48.69376 | 9.22878 | 1291 ft | 33 kts | 74° |
| 2026-05-06 17:57 | 48.69440 | 9.23209 | 1291 ft | 33 kts | 73° |
| 2026-05-06 17:57 | 48.69492 | 9.23483 | 1291 ft | 24 kts | 74° |
| 2026-05-06 17:57 | 48.69538 | 9.23724 | 1291 ft | 24 kts | 74° |
| 2026-05-06 17:58 | 48.69585 | 9.23970 | 1291 ft | 23 kts | 75° |
| 2026-05-06 17:58 | 48.69603 | 9.24156 | 1291 ft | 18 kts | 92° |
| 2026-05-06 17:58 | 48.69537 | 9.24298 | 1291 ft | 17 kts | 153° |
| 2026-05-06 17:58 | 48.69423 | 9.24320 | 1291 ft | 16 kts | 190° |
| 2026-05-06 17:59 | 48.69368 | 9.24198 | 1291 ft | 15 kts | 252° |
| 2026-05-06 17:59 | 48.69364 | 9.24179 | 1291 ft | 0 kts | 252° |
| 2026-05-06 18:00 | 48.69363 | 9.24176 | 1291 ft | 2 kts | 252° |
| 2026-05-06 18:00 | 48.69295 | 9.23835 | 1291 ft | 81 kts | 254° |
| 2026-05-06 18:01 | 48.69056 | 9.22582 | 1294 ft | 162 kts | 253° |
| 2026-05-06 18:01 | 48.68728 | 9.20789 | 1886 ft | 179 kts | 255° |
| 2026-05-06 18:01 | 48.68428 | 9.18914 | 2789 ft | 187 kts | 256° |
| 2026-05-06 18:01 | 48.68073 | 9.16953 | 3563 ft | 202 kts | 248° |
| 2026-05-06 18:02 | 48.67537 | 9.14875 | 4110 ft | 222 kts | 251° |
| 2026-05-06 18:02 | 48.67091 | 9.12718 | 4883 ft | 227 kts | 253° |
| 2026-05-06 18:02 | 48.66638 | 9.10398 | 5564 ft | 233 kts | 253° |
| 2026-05-06 18:02 | 48.66160 | 9.08000 | 6258 ft | 237 kts | 252° |
| 2026-05-06 18:03 | 48.65664 | 9.05606 | 6913 ft | 240 kts | 252° |
| 2026-05-06 18:03 | 48.64948 | 9.03358 | 7569 ft | 243 kts | 233° |
| 2026-05-06 18:03 | 48.63643 | 9.01707 | 8240 ft | 250 kts | 207° |
| 2026-05-06 18:03 | 48.61942 | 9.01150 | 9025 ft | 256 kts | 180° |
| 2026-05-06 18:04 | 48.60212 | 9.01858 | 9791 ft | 264 kts | 153° |
| 2026-05-06 18:04 | 48.58841 | 9.03727 | 10527 ft | 272 kts | 126° |
| 2026-05-06 18:04 | 48.58144 | 9.06389 | 11266 ft | 278 kts | 100° |
| 2026-05-06 18:04 | 48.58300 | 9.09387 | 11963 ft | 286 kts | 73° |
| 2026-05-06 18:05 | 48.59270 | 9.11923 | 12677 ft | 290 kts | 47° |
| 2026-05-06 18:05 | 48.60817 | 9.13881 | 13129 ft | 303 kts | 40° |
| 2026-05-06 18:05 | 48.62171 | 9.16450 | 13291 ft | 324 kts | 63° |
| 2026-05-06 18:05 | 48.62877 | 9.19750 | 13506 ft | 340 kts | 84° |
| 2026-05-06 18:06 | 48.62869 | 9.23394 | 13719 ft | 355 kts | 95° |
| 2026-05-06 18:06 | 48.62922 | 9.27199 | 14028 ft | 369 kts | 84° |
| 2026-05-06 18:06 | 48.63528 | 9.30980 | 14686 ft | 372 kts | 73° |
| 2026-05-06 18:06 | 48.64410 | 9.34663 | 15337 ft | 374 kts | 70° |
| 2026-05-06 18:07 | 48.65132 | 9.38431 | 15907 ft | 373 kts | 84° |
| 2026-05-06 18:07 | 48.65187 | 9.42338 | 16546 ft | 371 kts | 94° |
| 2026-05-06 18:07 | 48.65086 | 9.46243 | 17168 ft | 373 kts | 95° |
| 2026-05-06 18:07 | 48.64962 | 9.50161 | 17795 ft | 375 kts | 95° |
| 2026-05-06 18:08 | 48.64838 | 9.54061 | 18389 ft | 377 kts | 95° |
| 2026-05-06 18:08 | 48.64713 | 9.58085 | 18914 ft | 379 kts | 95° |
| 2026-05-06 18:08 | 48.64553 | 9.62021 | 19295 ft | 384 kts | 97° |
| 2026-05-06 18:08 | 48.64387 | 9.66056 | 19814 ft | 387 kts | 97° |
| 2026-05-06 18:09 | 48.64224 | 9.70122 | 20339 ft | 390 kts | 97° |
| 2026-05-06 18:09 | 48.64063 | 9.73885 | 20875 ft | 391 kts | 97° |
| 2026-05-06 18:09 | 48.63877 | 9.77995 | 21419 ft | 393 kts | 97° |
| 2026-05-06 18:09 | 48.63682 | 9.82127 | 21961 ft | 397 kts | 98° |
| 2026-05-06 18:10 | 48.63479 | 9.86304 | 22519 ft | 399 kts | 98° |
| 2026-05-06 18:10 | 48.63273 | 9.90488 | 23094 ft | 402 kts | 98° |
| 2026-05-06 18:10 | 48.63063 | 9.94730 | 23585 ft | 405 kts | 98° |
| 2026-05-06 18:10 | 48.62850 | 9.98990 | 24007 ft | 409 kts | 98° |
| 2026-05-06 18:11 | 48.62636 | 10.03268 | 24396 ft | 413 kts | 98° |
| 2026-05-06 18:11 | 48.62489 | 10.06175 | 24556 ft | 419 kts | 99° |
| 2026-05-06 18:11 | 48.62263 | 10.10581 | 25006 ft | 421 kts | 99° |
| 2026-05-06 18:11 | 48.61960 | 10.16466 | 25585 ft | 426 kts | 99° |
| 2026-05-06 18:12 | 48.61726 | 10.20960 | 25992 ft | 430 kts | 99° |
| 2026-05-06 18:12 | 48.61486 | 10.25532 | 26424 ft | 433 kts | 99° |
| 2026-05-06 18:12 | 48.61249 | 10.30018 | 26829 ft | 437 kts | 99° |
| 2026-05-06 18:12 | 48.61004 | 10.34613 | 27230 ft | 440 kts | 99° |
| 2026-05-06 18:13 | 48.60755 | 10.39248 | 27632 ft | 444 kts | 99° |
| 2026-05-06 18:13 | 48.60503 | 10.43902 | 28027 ft | 447 kts | 99° |
| 2026-05-06 18:13 | 48.60248 | 10.48596 | 28336 ft | 451 kts | 99° |
| 2026-05-06 18:13 | 48.59988 | 10.53322 | 28725 ft | 453 kts | 99° |
| 2026-05-06 18:14 | 48.59815 | 10.56471 | 28998 ft | 455 kts | 99° |
| 2026-05-06 18:14 | 48.59550 | 10.61241 | 29395 ft | 457 kts | 99° |
| 2026-05-06 18:14 | 48.59285 | 10.65995 | 29749 ft | 460 kts | 99° |
| 2026-05-06 18:14 | 48.59018 | 10.70729 | 30085 ft | 463 kts | 99° |
| 2026-05-06 18:15 | 48.58742 | 10.75582 | 30422 ft | 466 kts | 99° |
| 2026-05-06 18:15 | 48.58463 | 10.80462 | 30728 ft | 469 kts | 99° |
| 2026-05-06 18:15 | 48.58180 | 10.85380 | 30829 ft | 474 kts | 99° |
| 2026-05-06 18:15 | 48.57887 | 10.90393 | 30811 ft | 484 kts | 100° |
| 2026-05-06 18:16 | 48.57292 | 11.00555 | 30824 ft | 486 kts | 100° |
| 2026-05-06 18:16 | 48.56691 | 11.10697 | 30826 ft | 486 kts | 100° |
| 2026-05-06 18:17 | 48.56076 | 11.20870 | 30826 ft | 486 kts | 100° |
| 2026-05-06 18:17 | 48.55456 | 11.30959 | 30793 ft | 486 kts | 100° |
| 2026-05-06 18:18 | 48.54821 | 11.41111 | 30782 ft | 487 kts | 100° |
| 2026-05-06 18:18 | 48.54179 | 11.51279 | 30781 ft | 486 kts | 100° |
| 2026-05-06 18:19 | 48.53531 | 11.61408 | 30800 ft | 486 kts | 100° |
| 2026-05-06 18:19 | 48.52876 | 11.71475 | 30781 ft | 486 kts | 100° |
| 2026-05-06 18:20 | 48.52204 | 11.81637 | 30800 ft | 494 kts | 100° |
| 2026-05-06 18:20 | 48.51520 | 11.91900 | 30819 ft | 492 kts | 100° |
| 2026-05-06 18:21 | 48.50825 | 12.02182 | 30821 ft | 492 kts | 100° |
| 2026-05-06 18:21 | 48.50124 | 12.12427 | 30813 ft | 492 kts | 100° |
| 2026-05-06 18:22 | 48.49413 | 12.22636 | 30798 ft | 496 kts | 100° |
| 2026-05-06 18:22 | 48.48686 | 12.32974 | 30799 ft | 495 kts | 100° |
| 2026-05-06 18:23 | 48.47956 | 12.43228 | 30794 ft | 495 kts | 100° |
| 2026-05-06 18:23 | 48.47212 | 12.53546 | 30778 ft | 495 kts | 100° |
| 2026-05-06 18:24 | 48.46463 | 12.63800 | 30783 ft | 495 kts | 100° |
| 2026-05-06 18:24 | 48.45700 | 12.74107 | 30765 ft | 495 kts | 100° |
| 2026-05-06 18:25 | 48.44930 | 12.84393 | 30767 ft | 495 kts | 100° |
| 2026-05-06 18:25 | 48.44148 | 12.94702 | 30766 ft | 495 kts | 100° |
| 2026-05-06 18:26 | 48.43360 | 13.05000 | 30734 ft | 498 kts | 101° |
| 2026-05-06 18:26 | 48.42552 | 13.15384 | 30744 ft | 502 kts | 101° |
| 2026-05-06 18:27 | 48.41737 | 13.25805 | 30726 ft | 502 kts | 101° |
| 2026-05-06 18:27 | 48.41584 | 13.36355 | 30731 ft | 509 kts | 88° |
| 2026-05-06 18:28 | 48.42245 | 13.46969 | 30717 ft | 509 kts | 88° |
| 2026-05-06 18:28 | 48.42880 | 13.57704 | 30702 ft | 518 kts | 89° |
| 2026-05-06 18:29 | 48.43493 | 13.68478 | 30702 ft | 517 kts | 90° |
| 2026-05-06 18:29 | 48.44093 | 13.79242 | 30692 ft | 517 kts | 90° |
| 2026-05-06 18:30 | 48.44685 | 13.90028 | 30690 ft | 517 kts | 90° |
| 2026-05-06 18:30 | 48.45284 | 14.00842 | 30696 ft | 518 kts | 90° |
| 2026-05-06 18:31 | 48.45843 | 14.11566 | 30716 ft | 517 kts | 90° |
| 2026-05-06 18:31 | 48.46398 | 14.22349 | 30575 ft | 514 kts | 90° |
| 2026-05-06 18:32 | 48.46674 | 14.27728 | 30328 ft | 515 kts | 90° |
| 2026-05-06 18:32 | 48.46945 | 14.33069 | 29921 ft | 512 kts | 90° |
| 2026-05-06 18:32 | 48.47215 | 14.38424 | 28729 ft | 512 kts | 90° |
| 2026-05-06 18:32 | 48.47480 | 14.43775 | 27310 ft | 511 kts | 90° |
| 2026-05-06 18:33 | 48.47745 | 14.49078 | 26234 ft | 502 kts | 90° |
| 2026-05-06 18:33 | 48.47999 | 14.54200 | 25276 ft | 491 kts | 90° |
| 2026-05-06 18:33 | 48.48247 | 14.59207 | 24847 ft | 467 kts | 90° |
| 2026-05-06 18:33 | 48.48483 | 14.64010 | 24040 ft | 455 kts | 90° |
| 2026-05-06 18:34 | 48.48708 | 14.68722 | 23129 ft | 447 kts | 90° |
| 2026-05-06 18:34 | 48.48924 | 14.73368 | 22027 ft | 440 kts | 90° |
| 2026-05-06 18:34 | 48.49134 | 14.77942 | 20946 ft | 434 kts | 90° |
| 2026-05-06 18:34 | 48.49340 | 14.82438 | 19869 ft | 428 kts | 90° |
| 2026-05-06 18:35 | 48.49542 | 14.86890 | 18877 ft | 421 kts | 90° |
| 2026-05-06 18:35 | 48.49739 | 14.91242 | 17877 ft | 414 kts | 90° |
| 2026-05-06 18:35 | 48.49929 | 14.95489 | 17223 ft | 409 kts | 90° |
| 2026-05-06 18:35 | 48.50117 | 14.99767 | 16905 ft | 410 kts | 90° |
| 2026-05-06 18:36 | 48.50304 | 15.04021 | 16757 ft | 410 kts | 90° |
| 2026-05-06 18:36 | 48.50492 | 15.08304 | 16711 ft | 410 kts | 89° |
| 2026-05-06 18:36 | 48.50680 | 15.12590 | 16715 ft | 410 kts | 89° |
| 2026-05-06 18:36 | 48.50867 | 15.16890 | 16710 ft | 411 kts | 89° |
| 2026-05-06 18:37 | 48.51053 | 15.21179 | 16710 ft | 409 kts | 90° |
| 2026-05-06 18:37 | 48.51237 | 15.25456 | 16709 ft | 408 kts | 90° |
| 2026-05-06 18:37 | 48.51418 | 15.29729 | 16709 ft | 408 kts | 90° |
| 2026-05-06 18:37 | 48.51596 | 15.33979 | 16705 ft | 406 kts | 89° |
| 2026-05-06 18:38 | 48.51772 | 15.38222 | 16711 ft | 406 kts | 90° |
| 2026-05-06 18:38 | 48.51943 | 15.42476 | 16707 ft | 406 kts | 91° |
| 2026-05-06 18:38 | 48.51878 | 15.46726 | 16709 ft | 403 kts | 99° |
| 2026-05-06 18:38 | 48.51616 | 15.50874 | 16708 ft | 403 kts | 99° |
| 2026-05-06 18:39 | 48.51373 | 15.55077 | 16706 ft | 403 kts | 98° |
| 2026-05-06 18:39 | 48.51134 | 15.59346 | 16707 ft | 403 kts | 98° |
| 2026-05-06 18:39 | 48.50901 | 15.63492 | 16708 ft | 403 kts | 98° |
| 2026-05-06 18:40 | 48.50429 | 15.71819 | 16037 ft | 395 kts | 98° |
| 2026-05-06 18:40 | 48.50189 | 15.75928 | 15437 ft | 390 kts | 98° |
| 2026-05-06 18:40 | 48.49952 | 15.79976 | 14731 ft | 385 kts | 98° |
| 2026-05-06 18:40 | 48.49720 | 15.83916 | 14449 ft | 368 kts | 98° |
| 2026-05-06 18:41 | 48.49503 | 15.87659 | 14273 ft | 349 kts | 98° |
| 2026-05-06 18:41 | 48.49304 | 15.91223 | 14115 ft | 332 kts | 98° |
| 2026-05-06 18:41 | 48.49114 | 15.94600 | 13872 ft | 318 kts | 98° |
| 2026-05-06 18:41 | 48.48920 | 15.97895 | 13416 ft | 312 kts | 99° |
| 2026-05-06 18:42 | 48.48725 | 16.01139 | 13151 ft | 314 kts | 99° |
| 2026-05-06 18:42 | 48.48528 | 16.04377 | 12874 ft | 313 kts | 99° |
| 2026-05-06 18:42 | 48.48333 | 16.07622 | 12610 ft | 311 kts | 99° |
| 2026-05-06 18:42 | 48.48135 | 16.10885 | 12360 ft | 311 kts | 99° |
| 2026-05-06 18:43 | 48.47938 | 16.14126 | 12104 ft | 310 kts | 99° |
| 2026-05-06 18:43 | 48.47742 | 16.17357 | 11851 ft | 310 kts | 99° |
| 2026-05-06 18:43 | 48.47548 | 16.20589 | 11586 ft | 307 kts | 99° |
| 2026-05-06 18:43 | 48.47353 | 16.23785 | 11336 ft | 306 kts | 99° |
| 2026-05-06 18:44 | 48.47155 | 16.26974 | 11102 ft | 305 kts | 99° |
| 2026-05-06 18:44 | 48.46676 | 16.30036 | 10845 ft | 297 kts | 119° |
| 2026-05-06 18:44 | 48.45490 | 16.32486 | 10603 ft | 287 kts | 143° |
| 2026-05-06 18:44 | 48.43788 | 16.33941 | 10376 ft | 278 kts | 165° |
| 2026-05-06 18:45 | 48.42010 | 16.35080 | 10145 ft | 281 kts | 155° |
| 2026-05-06 18:45 | 48.40233 | 16.36263 | 9797 ft | 278 kts | 164° |
| 2026-05-06 18:45 | 48.38424 | 16.37130 | 9234 ft | 276 kts | 165° |
| 2026-05-06 18:45 | 48.36584 | 16.38005 | 8536 ft | 273 kts | 165° |
| 2026-05-06 18:46 | 48.34804 | 16.38853 | 7730 ft | 272 kts | 165° |
| 2026-05-06 18:46 | 48.33029 | 16.39731 | 7263 ft | 271 kts | 165° |
| 2026-05-06 18:46 | 48.31329 | 16.41008 | 7059 ft | 280 kts | 146° |
| 2026-05-06 18:46 | 48.30078 | 16.43290 | 6989 ft | 288 kts | 120° |
| 2026-05-06 18:47 | 48.29497 | 16.46203 | 6987 ft | 295 kts | 104° |
| 2026-05-06 18:47 | 48.29071 | 16.49198 | 6991 ft | 294 kts | 105° |
| 2026-05-06 18:47 | 48.28646 | 16.52173 | 6982 ft | 291 kts | 106° |
| 2026-05-06 18:47 | 48.28284 | 16.55184 | 6996 ft | 293 kts | 105° |
| 2026-05-06 18:48 | 48.27932 | 16.58186 | 6998 ft | 292 kts | 105° |
| 2026-05-06 18:48 | 48.27577 | 16.61204 | 7000 ft | 292 kts | 105° |
| 2026-05-06 18:48 | 48.27243 | 16.64207 | 6993 ft | 293 kts | 101° |
| 2026-05-06 18:48 | 48.27432 | 16.67245 | 6992 ft | 304 kts | 76° |
| 2026-05-06 18:49 | 48.28445 | 16.70056 | 6997 ft | 310 kts | 51° |
| 2026-05-06 18:49 | 48.30118 | 16.72058 | 7006 ft | 309 kts | 25° |
| 2026-05-06 18:49 | 48.32155 | 16.72892 | 6994 ft | 302 kts | 360° |
| 2026-05-06 18:49 | 48.34216 | 16.72534 | 6991 ft | 299 kts | 345° |
| 2026-05-06 18:50 | 48.36263 | 16.71940 | 6989 ft | 300 kts | 345° |
| 2026-05-06 18:50 | 48.38309 | 16.71350 | 6985 ft | 299 kts | 345° |
| 2026-05-06 18:50 | 48.40350 | 16.70763 | 6983 ft | 298 kts | 345° |
| 2026-05-06 18:50 | 48.42392 | 16.70171 | 6980 ft | 300 kts | 345° |
| 2026-05-06 18:51 | 48.44418 | 16.69580 | 6788 ft | 290 kts | 345° |
| 2026-05-06 18:51 | 48.46272 | 16.68820 | 6491 ft | 262 kts | 328° |
| 2026-05-06 18:51 | 48.47617 | 16.67176 | 6238 ft | 246 kts | 299° |
| 2026-05-06 18:51 | 48.48263 | 16.64886 | 5879 ft | 233 kts | 271° |
| 2026-05-06 18:52 | 48.48159 | 16.62578 | 5420 ft | 219 kts | 255° |
| 2026-05-06 18:52 | 48.47771 | 16.60344 | 5081 ft | 222 kts | 241° |
| 2026-05-06 18:52 | 48.46766 | 16.58670 | 4987 ft | 215 kts | 214° |
| 2026-05-06 18:52 | 48.45577 | 16.57433 | 4970 ft | 200 kts | 215° |
| 2026-05-06 18:53 | 48.44457 | 16.56226 | 4959 ft | 198 kts | 220° |
| 2026-05-06 18:53 | 48.43699 | 16.54517 | 4985 ft | 197 kts | 245° |
| 2026-05-06 18:53 | 48.43178 | 16.52606 | 4992 ft | 197 kts | 245° |
| 2026-05-06 18:53 | 48.42659 | 16.50680 | 4976 ft | 198 kts | 245° |
| 2026-05-06 18:54 | 48.42149 | 16.48792 | 4972 ft | 191 kts | 245° |
| 2026-05-06 18:54 | 48.41632 | 16.46959 | 4970 ft | 186 kts | 243° |
| 2026-05-06 18:54 | 48.40805 | 16.45610 | 4983 ft | 178 kts | 208° |
| 2026-05-06 18:54 | 48.39608 | 16.45166 | 4978 ft | 182 kts | 190° |
| 2026-05-06 18:55 | 48.38364 | 16.45341 | 4994 ft | 186 kts | 161° |
| 2026-05-06 18:55 | 48.37220 | 16.46338 | 4980 ft | 188 kts | 152° |
| 2026-05-06 18:55 | 48.36090 | 16.47344 | 4982 ft | 189 kts | 158° |
| 2026-05-06 18:55 | 48.34880 | 16.48084 | 4983 ft | 187 kts | 166° |
| 2026-05-06 18:56 | 48.33627 | 16.48630 | 4931 ft | 189 kts | 170° |
| 2026-05-06 18:56 | 48.32372 | 16.49153 | 4729 ft | 185 kts | 170° |
| 2026-05-06 18:56 | 48.31141 | 16.49680 | 4490 ft | 183 kts | 171° |
| 2026-05-06 18:56 | 48.29910 | 16.50199 | 4244 ft | 183 kts | 170° |
| 2026-05-06 18:57 | 48.28701 | 16.50716 | 4013 ft | 180 kts | 170° |
| 2026-05-06 18:57 | 48.27514 | 16.51223 | 3766 ft | 177 kts | 171° |
| 2026-05-06 18:57 | 48.26356 | 16.51716 | 3525 ft | 169 kts | 171° |
| 2026-05-06 18:57 | 48.25243 | 16.52189 | 3312 ft | 164 kts | 172° |
| 2026-05-06 18:58 | 48.24167 | 16.52646 | 3101 ft | 158 kts | 172° |
| 2026-05-06 18:58 | 48.23101 | 16.53094 | 2894 ft | 160 kts | 172° |
| 2026-05-06 18:58 | 48.22054 | 16.53542 | 2690 ft | 156 kts | 171° |
| 2026-05-06 18:58 | 48.20994 | 16.53989 | 2486 ft | 157 kts | 170° |
| 2026-05-06 18:59 | 48.19946 | 16.54436 | 2293 ft | 156 kts | 169° |
| 2026-05-06 18:59 | 48.18899 | 16.54884 | 2068 ft | 157 kts | 169° |
| 2026-05-06 18:59 | 48.17839 | 16.55329 | 1856 ft | 158 kts | 169° |
| 2026-05-06 18:59 | 48.16797 | 16.55773 | 1660 ft | 158 kts | 169° |
| 2026-05-06 19:00 | 48.15727 | 16.56223 | 1430 ft | 158 kts | 166° |
| 2026-05-06 19:00 | 48.14746 | 16.56643 | 1242 ft | 134 kts | 167° |
| 2026-05-06 19:00 | 48.13879 | 16.56998 | 1076 ft | 131 kts | 167° |
| 2026-05-06 19:00 | 48.12999 | 16.57391 | 884 ft | 130 kts | 165° |
| 2026-05-06 19:01 | 48.12160 | 16.57734 | 669 ft | 122 kts | 166° |
| 2026-05-06 19:01 | 48.11306 | 16.58094 | 624 ft | 123 kts | 165° |
| 2026-05-06 19:01 | 48.10754 | 16.58333 | 627 ft | 40 kts | 164° |
| 2026-05-06 19:01 | 48.10449 | 16.58453 | 622 ft | 70 kts | 166° |
| 2026-05-06 19:02 | 48.09991 | 16.58635 | 628 ft | 27 kts | 179° |
| 2026-05-06 19:02 | 48.09820 | 16.58592 | 634 ft | 28 kts | 189° |
| 2026-05-06 19:02 | 48.09693 | 16.58560 | 635 ft | 3 kts | 192° |
| 2026-05-06 19:02 | 48.09634 | 16.58466 | 636 ft | 12 kts | 272° |
| 2026-05-06 19:03 | 48.09714 | 16.58357 | 637 ft | 19 kts | 339° |
| 2026-05-06 19:03 | 48.09869 | 16.58293 | 634 ft | 27 kts | 345° |
| 2026-05-06 19:03 | 48.10080 | 16.58206 | 632 ft | 35 kts | 341° |
| 2026-05-06 19:03 | 48.10260 | 16.58129 | 631 ft | 13 kts | 340° |
| 2026-05-06 19:04 | 48.10285 | 16.58117 | 631 ft | 0 kts | 343° |
| 2026-05-06 19:04 | 48.10297 | 16.58112 | 632 ft | 5 kts | 343° |
| 2026-05-06 19:04 | 48.10357 | 16.58085 | 632 ft | 13 kts | 343° |
| 2026-05-06 19:04 | 48.10466 | 16.58039 | 633 ft | 19 kts | 345° |
| 2026-05-06 19:05 | 48.10604 | 16.57982 | 630 ft | 21 kts | 344° |
| 2026-05-06 19:05 | 48.10752 | 16.57919 | 628 ft | 24 kts | 344° |
| 2026-05-06 19:05 | 48.10884 | 16.57861 | 633 ft | 0 kts | 343° |
| 2026-05-06 19:05 | 48.10885 | 16.57860 | 633 ft | 0 kts | 343° |
| 2026-05-06 19:06 | 48.10904 | 16.57852 | 633 ft | 8 kts | 343° |
| 2026-05-06 19:06 | 48.10988 | 16.57820 | 633 ft | 14 kts | 345° |
| 2026-05-06 19:06 | 48.11035 | 16.57802 | 626 ft | 0 kts | 345° |
| 2026-05-06 19:06 | 48.11119 | 16.57769 | 625 ft | 12 kts | 346° |
| 2026-05-06 19:07 | 48.11139 | 16.57762 | 619 ft | 0 kts | 346° |
| 2026-05-06 19:07 | 48.11150 | 16.57749 | 627 ft | 6 kts | 323° |
| 2026-05-06 19:07 | 48.11170 | 16.57680 | 629 ft | 8 kts | 290° |
| 2026-05-06 19:07 | 48.11194 | 16.57594 | 627 ft | 10 kts | 293° |
| 2026-05-06 19:08 | 48.11226 | 16.57487 | 623 ft | 12 kts | 297° |
| 2026-05-06 19:08 | 48.11268 | 16.57375 | 632 ft | 12 kts | 299° |
| 2026-05-06 19:08 | 48.11278 | 16.57346 | 633 ft | 0 kts | 299° |
| 2026-05-06 19:09 | 48.11280 | 16.57344 | 633 ft | 2 kts | 306° |
| 2026-05-06 19:09 | 48.11322 | 16.57333 | 632 ft | 6 kts | 6° |
| 2026-05-06 19:09 | 48.11386 | 16.57376 | 633 ft | 13 kts | 24° |
| 2026-05-06 19:09 | 48.11460 | 16.57408 | 628 ft | 0 kts | 5° |
| 2026-05-06 19:10 | 48.11465 | 16.57405 | 626 ft | 4 kts | 352° |
| 2026-05-06 19:10 | 48.11484 | 16.57354 | 628 ft | 8 kts | 277° |
| 2026-05-06 19:10 | 48.11472 | 16.57293 | 624 ft | 7 kts | 257° |
| 2026-05-06 19:10 | 48.11471 | 16.57238 | 627 ft | 0 kts | 274° |
| 2026-05-06 19:11 | 48.11471 | 16.57240 | 627 ft | 0 kts | 274° |
| 2026-05-06 19:11 | 48.11472 | 16.57239 | 628 ft | 1 kts | 278° |
| 2026-05-06 19:11 | 48.11477 | 16.57227 | 627 ft | 3 kts | 293° |
| 2026-05-06 19:11 | 48.11506 | 16.57201 | 620 ft | 7 kts | 344° |
| 2026-05-06 19:12 | 48.11555 | 16.57219 | 620 ft | 0 kts | 23° |